sensor_id;sensor_type;location;lat;lon;timestamp;pressure;altitude;pressure_sealevel;temperature;humidity
15263;BME280;7733;51.554;13.590;2023-04-29T00:00:02;99903.84;;;14.44;78.12
15263;BME280;7733;51.554;13.590;2023-04-29T00:02:32;99890.81;;;14.63;76.86
15263;BME280;7733;51.554;13.590;2023-04-29T00:04:58;99885.97;;;14.74;75.93
15263;BME280;7733;51.554;13.590;2023-04-29T00:07:24;99892.53;;;14.64;76.44
15263;BME280;7733;51.554;13.590;2023-04-29T00:09:49;99888.47;;;14.55;76.99
15263;BME280;7733;51.554;13.590;2023-04-29T00:12:15;99885.63;;;14.83;75.51
15263;BME280;7733;51.554;13.590;2023-04-29T00:14:41;99888.72;;;14.71;75.90
15263;BME280;7733;51.554;13.590;2023-04-29T00:17:08;99889.81;;;14.44;76.98
15263;BME280;7733;51.554;13.590;2023-04-29T00:19:34;99891.25;;;14.04;79.51
15263;BME280;7733;51.554;13.590;2023-04-29T00:22:00;99893.78;;;14.30;78.15
15263;BME280;7733;51.554;13.590;2023-04-29T00:24:26;99881.25;;;14.36;78.58
15263;BME280;7733;51.554;13.590;2023-04-29T00:26:52;99881.00;;;14.67;76.78
15263;BME280;7733;51.554;13.590;2023-04-29T00:29:18;99887.63;;;14.30;78.35
15263;BME280;7733;51.554;13.590;2023-04-29T00:31:44;99884.59;;;14.17;80.00
15263;BME280;7733;51.554;13.590;2023-04-29T00:34:10;99880.41;;;14.12;80.59
15263;BME280;7733;51.554;13.590;2023-04-29T00:36:36;99870.28;;;14.48;78.79
15263;BME280;7733;51.554;13.590;2023-04-29T00:39:02;99872.22;;;14.43;79.30
15263;BME280;7733;51.554;13.590;2023-04-29T00:41:29;99883.16;;;14.09;81.10
15263;BME280;7733;51.554;13.590;2023-04-29T00:43:56;99879.78;;;14.05;82.12
15263;BME280;7733;51.554;13.590;2023-04-29T00:46:21;99878.81;;;14.31;80.42
15263;BME280;7733;51.554;13.590;2023-04-29T00:48:48;99870.47;;;13.95;83.45
15263;BME280;7733;51.554;13.590;2023-04-29T00:51:16;99880.59;;;14.30;80.87
15263;BME280;7733;51.554;13.590;2023-04-29T00:53:43;99875.19;;;14.57;79.27
15263;BME280;7733;51.554;13.590;2023-04-29T00:56:09;99875.00;;;14.15;81.82
15263;BME280;7733;51.554;13.590;2023-04-29T00:58:36;99881.34;;;13.86;83.58
15263;BME280;7733;51.554;13.590;2023-04-29T01:01:03;99877.38;;;14.22;81.83
15263;BME280;7733;51.554;13.590;2023-04-29T01:03:30;99878.31;;;14.20;82.24
15263;BME280;7733;51.554;13.590;2023-04-29T01:12:31;99880.16;;;13.69;86.69
15263;BME280;7733;51.554;13.590;2023-04-29T01:15:09;99883.38;;;14.03;84.76
15263;BME280;7733;51.554;13.590;2023-04-29T01:17:46;99883.06;;;13.87;85.14
15263;BME280;7733;51.554;13.590;2023-04-29T01:20:13;99874.63;;;14.02;84.94
15263;BME280;7733;51.554;13.590;2023-04-29T01:22:39;99875.84;;;13.92;84.77
15263;BME280;7733;51.554;13.590;2023-04-29T01:25:06;99886.97;;;14.00;84.11
15263;BME280;7733;51.554;13.590;2023-04-29T01:27:41;99882.69;;;14.21;83.84
15263;BME280;7733;51.554;13.590;2023-04-29T01:36:12;99877.09;;;13.82;85.68
15263;BME280;7733;51.554;13.590;2023-04-29T01:39:20;99878.22;;;13.75;86.62
15263;BME280;7733;51.554;13.590;2023-04-29T01:41:59;99886.56;;;13.87;87.72
15263;BME280;7733;51.554;13.590;2023-04-29T01:44:29;99885.16;;;14.02;86.44
15263;BME280;7733;51.554;13.590;2023-04-29T01:46:57;99888.59;;;13.79;88.86
15263;BME280;7733;51.554;13.590;2023-04-29T01:49:24;99895.69;;;13.77;90.27
15263;BME280;7733;51.554;13.590;2023-04-29T01:51:51;99900.03;;;13.53;94.53
15263;BME280;7733;51.554;13.590;2023-04-29T01:54:16;99895.81;;;13.23;100.00
15263;BME280;7733;51.554;13.590;2023-04-29T01:56:43;99903.25;;;13.08;100.00
15263;BME280;7733;51.554;13.590;2023-04-29T01:59:09;99904.97;;;13.09;100.00
15263;BME280;7733;51.554;13.590;2023-04-29T02:01:35;99901.09;;;12.93;100.00
15263;BME280;7733;51.554;13.590;2023-04-29T02:04:01;99899.69;;;12.83;100.00
15263;BME280;7733;51.554;13.590;2023-04-29T02:06:27;99894.06;;;12.94;100.00
15263;BME280;7733;51.554;13.590;2023-04-29T02:08:53;99892.72;;;13.08;100.00
15263;BME280;7733;51.554;13.590;2023-04-29T02:11:19;99888.78;;;13.23;100.00
15263;BME280;7733;51.554;13.590;2023-04-29T02:13:45;99888.00;;;13.46;100.00
15263;BME280;7733;51.554;13.590;2023-04-29T02:16:14;99893.38;;;13.43;100.00
15263;BME280;7733;51.554;13.590;2023-04-29T02:18:40;99897.69;;;13.46;100.00
15263;BME280;7733;51.554;13.590;2023-04-29T02:21:06;99903.69;;;13.49;100.00
15263;BME280;7733;51.554;13.590;2023-04-29T02:23:33;99898.31;;;13.52;100.00
15263;BME280;7733;51.554;13.590;2023-04-29T02:25:59;99897.69;;;13.46;100.00
15263;BME280;7733;51.554;13.590;2023-04-29T02:28:24;99902.22;;;13.92;100.00
15263;BME280;7733;51.554;13.590;2023-04-29T02:30:50;99902.63;;;13.80;100.00
15263;BME280;7733;51.554;13.590;2023-04-29T02:33:16;99907.38;;;13.70;100.00
15263;BME280;7733;51.554;13.590;2023-04-29T02:35:43;99905.69;;;13.43;100.00
15263;BME280;7733;51.554;13.590;2023-04-29T02:38:09;99898.22;;;13.80;100.00
15263;BME280;7733;51.554;13.590;2023-04-29T02:40:44;99894.47;;;13.87;100.00
15263;BME280;7733;51.554;13.590;2023-04-29T02:43:10;99901.25;;;13.69;100.00
15263;BME280;7733;51.554;13.590;2023-04-29T02:45:37;99891.34;;;13.51;100.00
15263;BME280;7733;51.554;13.590;2023-04-29T02:48:07;99896.63;;;13.76;100.00
15263;BME280;7733;51.554;13.590;2023-04-29T02:50:32;99902.47;;;14.09;100.00
15263;BME280;7733;51.554;13.590;2023-04-29T02:52:58;99897.09;;;13.87;100.00
15263;BME280;7733;51.554;13.590;2023-04-29T02:55:24;99897.22;;;14.32;100.00
15263;BME280;7733;51.554;13.590;2023-04-29T02:57:51;99907.66;;;14.36;100.00
15263;BME280;7733;51.554;13.590;2023-04-29T03:00:17;99894.34;;;14.39;100.00
15263;BME280;7733;51.554;13.590;2023-04-29T03:02:43;99893.22;;;14.69;100.00
15263;BME280;7733;51.554;13.590;2023-04-29T03:05:09;99895.34;;;14.81;100.00
15263;BME280;7733;51.554;13.590;2023-04-29T03:07:35;99883.06;;;14.58;100.00
15263;BME280;7733;51.554;13.590;2023-04-29T03:10:01;99890.31;;;14.75;100.00
15263;BME280;7733;51.554;13.590;2023-04-29T03:12:27;99893.03;;;14.74;100.00
15263;BME280;7733;51.554;13.590;2023-04-29T03:14:52;99886.41;;;14.39;100.00
15263;BME280;7733;51.554;13.590;2023-04-29T03:17:18;99887.94;;;14.69;100.00
15263;BME280;7733;51.554;13.590;2023-04-29T03:19:44;99883.19;;;14.77;100.00
15263;BME280;7733;51.554;13.590;2023-04-29T03:22:10;99892.78;;;14.33;100.00
15263;BME280;7733;51.554;13.590;2023-04-29T03:24:37;99889.91;;;14.64;100.00
15263;BME280;7733;51.554;13.590;2023-04-29T03:27:03;99893.91;;;14.51;100.00
15263;BME280;7733;51.554;13.590;2023-04-29T03:29:30;99888.06;;;14.66;100.00
15263;BME280;7733;51.554;13.590;2023-04-29T03:31:56;99893.00;;;14.52;100.00
15263;BME280;7733;51.554;13.590;2023-04-29T03:34:23;99886.69;;;14.56;100.00
15263;BME280;7733;51.554;13.590;2023-04-29T03:36:49;99887.09;;;14.20;100.00
15263;BME280;7733;51.554;13.590;2023-04-29T03:39:18;99888.50;;;14.30;100.00
15263;BME280;7733;51.554;13.590;2023-04-29T03:41:46;99885.75;;;14.34;100.00
15263;BME280;7733;51.554;13.590;2023-04-29T03:44:12;99883.31;;;14.52;100.00
15263;BME280;7733;51.554;13.590;2023-04-29T03:46:38;99884.94;;;14.31;100.00
15263;BME280;7733;51.554;13.590;2023-04-29T03:49:04;99895.38;;;14.35;100.00
15263;BME280;7733;51.554;13.590;2023-04-29T03:51:30;99885.91;;;14.29;100.00
15263;BME280;7733;51.554;13.590;2023-04-29T03:53:56;99895.56;;;14.30;100.00
15263;BME280;7733;51.554;13.590;2023-04-29T03:56:24;99894.63;;;14.31;100.00
15263;BME280;7733;51.554;13.590;2023-04-29T03:58:52;99894.16;;;14.45;100.00
15263;BME280;7733;51.554;13.590;2023-04-29T04:01:18;99902.09;;;13.95;100.00
15263;BME280;7733;51.554;13.590;2023-04-29T04:03:44;99896.72;;;13.98;100.00
15263;BME280;7733;51.554;13.590;2023-04-29T04:06:10;99901.88;;;14.01;100.00
15263;BME280;7733;51.554;13.590;2023-04-29T04:08:36;99890.38;;;13.79;100.00
15263;BME280;7733;51.554;13.590;2023-04-29T04:11:01;99899.81;;;13.86;100.00
15263;BME280;7733;51.554;13.590;2023-04-29T04:13:31;99904.06;;;13.90;100.00
15263;BME280;7733;51.554;13.590;2023-04-29T04:15:57;99897.69;;;13.70;100.00
15263;BME280;7733;51.554;13.590;2023-04-29T04:18:23;99889.03;;;13.92;100.00
15263;BME280;7733;51.554;13.590;2023-04-29T04:20:49;99893.47;;;14.15;100.00
15263;BME280;7733;51.554;13.590;2023-04-29T04:23:15;99896.34;;;14.09;100.00
15263;BME280;7733;51.554;13.590;2023-04-29T04:25:48;99898.88;;;14.12;100.00
15263;BME280;7733;51.554;13.590;2023-04-29T04:28:14;99892.78;;;14.10;100.00
15263;BME280;7733;51.554;13.590;2023-04-29T04:30:40;99903.97;;;14.40;100.00
15263;BME280;7733;51.554;13.590;2023-04-29T04:33:07;99903.41;;;14.31;100.00
15263;BME280;7733;51.554;13.590;2023-04-29T04:35:33;99898.22;;;14.53;100.00
15263;BME280;7733;51.554;13.590;2023-04-29T04:37:58;99896.31;;;14.57;100.00
15263;BME280;7733;51.554;13.590;2023-04-29T04:40:24;99901.97;;;14.48;100.00
15263;BME280;7733;51.554;13.590;2023-04-29T04:42:50;99901.03;;;14.49;100.00
15263;BME280;7733;51.554;13.590;2023-04-29T04:45:15;99907.59;;;14.37;100.00
15263;BME280;7733;51.554;13.590;2023-04-29T04:47:42;99903.84;;;14.19;100.00
15263;BME280;7733;51.554;13.590;2023-04-29T04:50:08;99912.47;;;14.24;100.00
15263;BME280;7733;51.554;13.590;2023-04-29T04:52:34;99905.34;;;14.51;100.00
15263;BME280;7733;51.554;13.590;2023-04-29T04:55:00;99909.16;;;14.43;100.00
15263;BME280;7733;51.554;13.590;2023-04-29T04:57:26;99904.59;;;14.48;100.00
15263;BME280;7733;51.554;13.590;2023-04-29T04:59:51;99907.13;;;14.26;100.00
15263;BME280;7733;51.554;13.590;2023-04-29T05:02:17;99916.72;;;14.28;100.00
15263;BME280;7733;51.554;13.590;2023-04-29T05:04:43;99917.16;;;14.16;100.00
15263;BME280;7733;51.554;13.590;2023-04-29T05:07:09;99909.41;;;14.12;100.00
15263;BME280;7733;51.554;13.590;2023-04-29T05:09:35;99909.84;;;14.24;100.00
15263;BME280;7733;51.554;13.590;2023-04-29T05:12:01;99916.94;;;14.22;100.00
15263;BME280;7733;51.554;13.590;2023-04-29T05:14:28;99908.16;;;14.47;100.00
15263;BME280;7733;51.554;13.590;2023-04-29T05:16:58;99916.94;;;14.22;100.00
15263;BME280;7733;51.554;13.590;2023-04-29T05:19:24;99913.16;;;14.29;100.00
15263;BME280;7733;51.554;13.590;2023-04-29T05:21:50;99920.22;;;14.29;100.00
15263;BME280;7733;51.554;13.590;2023-04-29T05:24:16;99925.72;;;14.48;100.00
15263;BME280;7733;51.554;13.590;2023-04-29T05:26:42;99916.69;;;14.53;100.00
15263;BME280;7733;51.554;13.590;2023-04-29T05:29:09;99929.25;;;14.47;100.00
15263;BME280;7733;51.554;13.590;2023-04-29T05:31:36;99926.75;;;14.44;100.00
15263;BME280;7733;51.554;13.590;2023-04-29T05:34:06;99927.06;;;14.58;100.00
15263;BME280;7733;51.554;13.590;2023-04-29T05:36:31;99928.22;;;14.51;100.00
15263;BME280;7733;51.554;13.590;2023-04-29T05:38:57;99933.50;;;14.51;100.00
15263;BME280;7733;51.554;13.590;2023-04-29T05:41:23;99935.63;;;14.40;100.00
15263;BME280;7733;51.554;13.590;2023-04-29T05:43:50;99934.78;;;14.39;100.00
15263;BME280;7733;51.554;13.590;2023-04-29T05:46:16;99937.94;;;14.50;100.00
15263;BME280;7733;51.554;13.590;2023-04-29T05:48:42;99940.16;;;14.36;100.00
15263;BME280;7733;51.554;13.590;2023-04-29T05:51:08;99939.47;;;14.31;100.00
15263;BME280;7733;51.554;13.590;2023-04-29T05:53:33;99945.00;;;14.25;100.00
15263;BME280;7733;51.554;13.590;2023-04-29T05:56:00;99941.38;;;14.27;100.00
15263;BME280;7733;51.554;13.590;2023-04-29T05:58:29;99945.47;;;14.11;100.00
15263;BME280;7733;51.554;13.590;2023-04-29T06:00:55;99939.19;;;14.39;100.00
15263;BME280;7733;51.554;13.590;2023-04-29T06:03:21;99945.84;;;14.25;100.00
15263;BME280;7733;51.554;13.590;2023-04-29T06:05:46;99948.25;;;14.31;100.00
15263;BME280;7733;51.554;13.590;2023-04-29T06:08:12;99943.94;;;14.54;100.00
15263;BME280;7733;51.554;13.590;2023-04-29T06:10:38;99947.00;;;14.67;100.00
15263;BME280;7733;51.554;13.590;2023-04-29T06:13:04;99948.41;;;14.75;100.00
15263;BME280;7733;51.554;13.590;2023-04-29T06:15:30;99952.44;;;14.62;100.00
15263;BME280;7733;51.554;13.590;2023-04-29T06:17:56;99954.38;;;14.57;100.00
15263;BME280;7733;51.554;13.590;2023-04-29T06:20:22;99955.41;;;14.76;100.00
15263;BME280;7733;51.554;13.590;2023-04-29T06:22:48;99957.38;;;14.71;100.00
15263;BME280;7733;51.554;13.590;2023-04-29T06:25:14;99952.28;;;14.43;100.00
15263;BME280;7733;51.554;13.590;2023-04-29T06:27:40;99959.22;;;14.69;100.00
15263;BME280;7733;51.554;13.590;2023-04-29T06:30:06;99964.66;;;14.88;100.00
15263;BME280;7733;51.554;13.590;2023-04-29T06:32:32;99965.06;;;14.77;100.00
15263;BME280;7733;51.554;13.590;2023-04-29T06:34:58;99965.81;;;14.57;100.00
15263;BME280;7733;51.554;13.590;2023-04-29T06:37:24;99967.22;;;14.43;100.00
15263;BME280;7733;51.554;13.590;2023-04-29T06:39:49;99970.81;;;14.65;100.00
15263;BME280;7733;51.554;13.590;2023-04-29T06:42:15;99976.06;;;14.42;100.00
15263;BME280;7733;51.554;13.590;2023-04-29T06:44:41;99972.16;;;14.52;100.00
15263;BME280;7733;51.554;13.590;2023-04-29T06:47:07;99973.78;;;14.56;100.00
15263;BME280;7733;51.554;13.590;2023-04-29T06:49:32;99978.13;;;14.80;100.00
15263;BME280;7733;51.554;13.590;2023-04-29T06:51:59;99975.44;;;14.58;100.00
15263;BME280;7733;51.554;13.590;2023-04-29T06:54:26;99975.28;;;14.63;100.00
15263;BME280;7733;51.554;13.590;2023-04-29T06:56:53;99980.50;;;14.88;100.00
15263;BME280;7733;51.554;13.590;2023-04-29T06:59:19;99973.69;;;14.82;100.00
15263;BME280;7733;51.554;13.590;2023-04-29T07:01:44;99987.09;;;14.76;100.00
15263;BME280;7733;51.554;13.590;2023-04-29T07:04:10;99984.00;;;14.65;100.00
15263;BME280;7733;51.554;13.590;2023-04-29T07:06:37;99987.28;;;14.72;100.00
15263;BME280;7733;51.554;13.590;2023-04-29T07:09:02;99989.28;;;14.65;100.00
15263;BME280;7733;51.554;13.590;2023-04-29T07:11:28;99985.53;;;14.47;100.00
15263;BME280;7733;51.554;13.590;2023-04-29T07:13:54;99984.41;;;14.29;100.00
15263;BME280;7733;51.554;13.590;2023-04-29T07:16:20;99990.34;;;14.35;100.00
15263;BME280;7733;51.554;13.590;2023-04-29T07:18:47;99987.03;;;14.29;100.00
15263;BME280;7733;51.554;13.590;2023-04-29T07:21:14;99993.00;;;14.35;100.00
15263;BME280;7733;51.554;13.590;2023-04-29T07:23:39;99991.50;;;14.27;100.00
15263;BME280;7733;51.554;13.590;2023-04-29T07:26:13;99991.91;;;14.15;100.00
15263;BME280;7733;51.554;13.590;2023-04-29T07:28:40;99997.34;;;14.36;100.00
15263;BME280;7733;51.554;13.590;2023-04-29T07:31:07;99987.03;;;14.29;100.00
15263;BME280;7733;51.554;13.590;2023-04-29T07:33:34;100001.25;;;14.25;100.00
15263;BME280;7733;51.554;13.590;2023-04-29T07:36:00;100002.00;;;14.29;100.00
15263;BME280;7733;51.554;13.590;2023-04-29T07:38:26;99993.53;;;14.46;100.00
15263;BME280;7733;51.554;13.590;2023-04-29T07:40:54;100001.66;;;14.38;100.00
15263;BME280;7733;51.554;13.590;2023-04-29T07:43:20;100007.78;;;14.39;100.00
15263;BME280;7733;51.554;13.590;2023-04-29T07:45:47;100010.59;;;14.34;100.00
15263;BME280;7733;51.554;13.590;2023-04-29T07:48:13;100012.44;;;14.32;100.00
15263;BME280;7733;51.554;13.590;2023-04-29T07:50:38;100018.28;;;14.40;100.00
15263;BME280;7733;51.554;13.590;2023-04-29T07:53:05;100012.75;;;14.49;100.00
15263;BME280;7733;51.554;13.590;2023-04-29T07:55:31;100016.97;;;14.53;100.00
15263;BME280;7733;51.554;13.590;2023-04-29T07:57:57;100016.94;;;14.55;100.00
15263;BME280;7733;51.554;13.590;2023-04-29T08:00:24;100021.75;;;14.44;100.00
15263;BME280;7733;51.554;13.590;2023-04-29T08:02:54;100029.41;;;14.75;100.00
15263;BME280;7733;51.554;13.590;2023-04-29T08:05:21;100029.03;;;14.60;100.00
15263;BME280;7733;51.554;13.590;2023-04-29T08:07:50;100038.09;;;14.53;100.00
15263;BME280;7733;51.554;13.590;2023-04-29T08:10:17;100032.72;;;14.80;100.00
15263;BME280;7733;51.554;13.590;2023-04-29T08:12:49;100038.59;;;14.88;100.00
15263;BME280;7733;51.554;13.590;2023-04-29T08:15:15;100042.22;;;14.85;100.00
15263;BME280;7733;51.554;13.590;2023-04-29T08:17:43;100042.44;;;15.03;100.00
15263;BME280;7733;51.554;13.590;2023-04-29T08:20:09;100041.28;;;15.10;100.00
15263;BME280;7733;51.554;13.590;2023-04-29T08:22:35;100047.78;;;14.53;100.00
15263;BME280;7733;51.554;13.590;2023-04-29T08:25:02;100048.06;;;14.94;100.00
15263;BME280;7733;51.554;13.590;2023-04-29T08:27:29;100043.56;;;14.72;100.00
15263;BME280;7733;51.554;13.590;2023-04-29T08:29:55;100051.25;;;14.55;100.00
15263;BME280;7733;51.554;13.590;2023-04-29T08:32:21;100046.19;;;14.49;100.00
15263;BME280;7733;51.554;13.590;2023-04-29T08:34:47;100051.34;;;14.52;100.00
15263;BME280;7733;51.554;13.590;2023-04-29T08:37:13;100059.56;;;14.44;100.00
15263;BME280;7733;51.554;13.590;2023-04-29T08:39:40;100056.75;;;14.49;100.00
15263;BME280;7733;51.554;13.590;2023-04-29T08:42:08;100056.78;;;14.72;100.00
15263;BME280;7733;51.554;13.590;2023-04-29T08:44:35;100064.19;;;14.63;100.00
15263;BME280;7733;51.554;13.590;2023-04-29T08:47:02;100065.25;;;14.57;100.00
15263;BME280;7733;51.554;13.590;2023-04-29T08:49:29;100072.13;;;14.61;100.00
15263;BME280;7733;51.554;13.590;2023-04-29T08:51:54;100066.88;;;14.35;100.00
15263;BME280;7733;51.554;13.590;2023-04-29T08:54:20;100075.22;;;14.22;100.00
15263;BME280;7733;51.554;13.590;2023-04-29T08:56:47;100083.50;;;14.37;100.00
15263;BME280;7733;51.554;13.590;2023-04-29T08:59:14;100092.25;;;14.12;100.00
15263;BME280;7733;51.554;13.590;2023-04-29T09:01:43;100090.88;;;14.02;100.00
15263;BME280;7733;51.554;13.590;2023-04-29T09:07:15;100099.25;;;13.87;100.00
15263;BME280;7733;51.554;13.590;2023-04-29T09:09:42;100098.50;;;13.83;100.00
15263;BME280;7733;51.554;13.590;2023-04-29T09:12:08;100104.75;;;14.07;100.00
15263;BME280;7733;51.554;13.590;2023-04-29T09:14:35;100108.63;;;13.95;100.00
15263;BME280;7733;51.554;13.590;2023-04-29T09:17:01;100109.50;;;13.96;100.00
15263;BME280;7733;51.554;13.590;2023-04-29T09:19:32;100106.91;;;13.94;100.00
15263;BME280;7733;51.554;13.590;2023-04-29T09:22:02;100112.28;;;13.91;100.00
15263;BME280;7733;51.554;13.590;2023-04-29T09:24:30;100109.09;;;14.08;100.00
15263;BME280;7733;51.554;13.590;2023-04-29T09:26:57;100113.81;;;13.98;100.00
15263;BME280;7733;51.554;13.590;2023-04-29T09:29:23;100117.25;;;14.00;100.00
15263;BME280;7733;51.554;13.590;2023-04-29T09:31:50;100124.94;;;14.35;100.00
15263;BME280;7733;51.554;13.590;2023-04-29T09:34:35;100127.72;;;14.04;100.00
15263;BME280;7733;51.554;13.590;2023-04-29T09:37:23;100138.56;;;14.21;100.00
15263;BME280;7733;51.554;13.590;2023-04-29T09:39:49;100146.78;;;14.12;100.00
15263;BME280;7733;51.554;13.590;2023-04-29T09:42:15;100146.41;;;13.96;100.00
15263;BME280;7733;51.554;13.590;2023-04-29T09:44:41;100153.88;;;13.83;100.00
15263;BME280;7733;51.554;13.590;2023-04-29T09:47:09;100157.38;;;13.84;100.00
15263;BME280;7733;51.554;13.590;2023-04-29T09:49:43;100162.75;;;13.79;100.00
15263;BME280;7733;51.554;13.590;2023-04-29T09:52:14;100168.38;;;13.68;100.00
15263;BME280;7733;51.554;13.590;2023-04-29T09:54:43;100169.00;;;13.77;100.00
15263;BME280;7733;51.554;13.590;2023-04-29T09:57:10;100175.00;;;13.82;100.00
15263;BME280;7733;51.554;13.590;2023-04-29T09:59:39;100172.19;;;13.58;100.00
15263;BME280;7733;51.554;13.590;2023-04-29T10:02:16;100180.41;;;13.48;100.00
15263;BME280;7733;51.554;13.590;2023-04-29T10:04:53;100185.50;;;13.54;100.00
15263;BME280;7733;51.554;13.590;2023-04-29T10:07:24;100187.84;;;13.64;100.00
15263;BME280;7733;51.554;13.590;2023-04-29T10:09:53;100184.72;;;13.50;100.00
15263;BME280;7733;51.554;13.590;2023-04-29T10:12:20;100190.56;;;13.60;100.00
15263;BME280;7733;51.554;13.590;2023-04-29T10:18:19;100190.97;;;13.48;100.00
15263;BME280;7733;51.554;13.590;2023-04-29T10:20:47;100202.06;;;13.28;100.00
15263;BME280;7733;51.554;13.590;2023-04-29T10:23:14;100205.81;;;13.50;100.00
15263;BME280;7733;51.554;13.590;2023-04-29T10:25:45;100205.28;;;13.37;100.00
15263;BME280;7733;51.554;13.590;2023-04-29T10:28:14;100208.31;;;13.24;100.00
15263;BME280;7733;51.554;13.590;2023-04-29T10:30:44;100209.75;;;13.03;100.00
15263;BME280;7733;51.554;13.590;2023-04-29T10:33:16;100209.78;;;13.00;100.00
15263;BME280;7733;51.554;13.590;2023-04-29T10:35:43;100215.16;;;12.97;100.00
15263;BME280;7733;51.554;13.590;2023-04-29T10:38:22;100219.19;;;13.10;100.00
15263;BME280;7733;51.554;13.590;2023-04-29T10:40:50;100220.59;;;13.25;100.00
15263;BME280;7733;51.554;13.590;2023-04-29T10:43:27;100224.09;;;13.25;100.00
15263;BME280;7733;51.554;13.590;2023-04-29T10:48:46;100237.03;;;12.99;100.00
15263;BME280;7733;51.554;13.590;2023-04-29T10:51:12;100224.72;;;12.99;100.00
15263;BME280;7733;51.554;13.590;2023-04-29T10:54:24;100238.06;;;12.93;100.00
15263;BME280;7733;51.554;13.590;2023-04-29T10:56:52;100238.75;;;13.01;100.00
15263;BME280;7733;51.554;13.590;2023-04-29T11:01:53;100239.63;;;13.00;100.00
15263;BME280;7733;51.554;13.590;2023-04-29T11:04:21;100239.56;;;13.03;100.00
15263;BME280;7733;51.554;13.590;2023-04-29T11:06:54;100233.22;;;13.10;100.00
15263;BME280;7733;51.554;13.590;2023-04-29T11:14:35;100243.59;;;13.17;100.00
15263;BME280;7733;51.554;13.590;2023-04-29T11:17:12;100250.66;;;13.15;100.00
15263;BME280;7733;51.554;13.590;2023-04-29T11:19:45;100260.63;;;13.03;100.00
15263;BME280;7733;51.554;13.590;2023-04-29T11:27:39;100264.16;;;12.68;100.00
15263;BME280;7733;51.554;13.590;2023-04-29T11:30:07;100266.94;;;12.61;100.00
15263;BME280;7733;51.554;13.590;2023-04-29T11:32:36;100275.63;;;12.66;100.00
15263;BME280;7733;51.554;13.590;2023-04-29T11:35:15;100278.09;;;12.72;100.00
15263;BME280;7733;51.554;13.590;2023-04-29T11:37:43;100276.88;;;12.49;100.00
15263;BME280;7733;51.554;13.590;2023-04-29T11:40:11;100290.91;;;12.50;100.00
15263;BME280;7733;51.554;13.590;2023-04-29T11:42:44;100295.25;;;12.51;100.00
15263;BME280;7733;51.554;13.590;2023-04-29T11:45:11;100292.13;;;12.35;100.00
15263;BME280;7733;51.554;13.590;2023-04-29T11:47:42;100297.63;;;12.25;100.00
15263;BME280;7733;51.554;13.590;2023-04-29T11:50:09;100297.16;;;12.46;100.00
15263;BME280;7733;51.554;13.590;2023-04-29T11:52:37;100307.81;;;12.38;100.00
15263;BME280;7733;51.554;13.590;2023-04-29T11:55:07;100315.94;;;12.29;100.00
15263;BME280;7733;51.554;13.590;2023-04-29T11:57:34;100312.41;;;12.30;100.00
15263;BME280;7733;51.554;13.590;2023-04-29T12:00:00;100313.16;;;12.35;100.00
15263;BME280;7733;51.554;13.590;2023-04-29T12:02:31;100316.13;;;12.22;100.00
15263;BME280;7733;51.554;13.590;2023-04-29T12:04:58;100321.34;;;12.23;100.00
15263;BME280;7733;51.554;13.590;2023-04-29T12:07:28;100328.72;;;12.06;100.00
15263;BME280;7733;51.554;13.590;2023-04-29T12:09:54;100334.03;;;12.03;100.00
15263;BME280;7733;51.554;13.590;2023-04-29T12:12:22;100333.63;;;12.21;100.00
15263;BME280;7733;51.554;13.590;2023-04-29T12:14:48;100330.16;;;12.19;100.00
15263;BME280;7733;51.554;13.590;2023-04-29T12:17:15;100339.09;;;12.12;100.00
15263;BME280;7733;51.554;13.590;2023-04-29T12:19:42;100333.63;;;12.23;100.00
15263;BME280;7733;51.554;13.590;2023-04-29T12:22:09;100334.91;;;12.43;100.00
15263;BME280;7733;51.554;13.590;2023-04-29T12:24:36;100339.44;;;12.37;100.00
15263;BME280;7733;51.554;13.590;2023-04-29T12:27:03;100336.00;;;12.33;100.00
15263;BME280;7733;51.554;13.590;2023-04-29T12:29:31;100339.94;;;12.53;100.00
15263;BME280;7733;51.554;13.590;2023-04-29T12:31:57;100339.81;;;12.59;100.00
15263;BME280;7733;51.554;13.590;2023-04-29T12:34:31;100347.91;;;12.49;100.00
15263;BME280;7733;51.554;13.590;2023-04-29T12:37:01;100353.31;;;12.43;100.00
15263;BME280;7733;51.554;13.590;2023-04-29T12:39:29;100353.38;;;12.40;100.00
15263;BME280;7733;51.554;13.590;2023-04-29T12:41:59;100356.59;;;12.53;100.00
15263;BME280;7733;51.554;13.590;2023-04-29T12:44:34;100359.91;;;12.61;100.00
15263;BME280;7733;51.554;13.590;2023-04-29T12:47:09;100363.41;;;12.23;100.00
15263;BME280;7733;51.554;13.590;2023-04-29T12:49:36;100365.47;;;12.09;100.00
15263;BME280;7733;51.554;13.590;2023-04-29T12:52:05;100368.25;;;12.00;100.00
15263;BME280;7733;51.554;13.590;2023-04-29T12:54:34;100365.75;;;12.35;100.00
15263;BME280;7733;51.554;13.590;2023-04-29T12:57:01;100371.34;;;12.20;100.00
15263;BME280;7733;51.554;13.590;2023-04-29T12:59:27;100372.56;;;12.04;100.00
15263;BME280;7733;51.554;13.590;2023-04-29T13:01:53;100383.78;;;12.12;100.00
15263;BME280;7733;51.554;13.590;2023-04-29T13:04:18;100374.84;;;12.22;100.00
15263;BME280;7733;51.554;13.590;2023-04-29T13:06:44;100372.31;;;12.16;100.00
15263;BME280;7733;51.554;13.590;2023-04-29T13:09:10;100370.19;;;12.33;100.00
15263;BME280;7733;51.554;13.590;2023-04-29T13:11:37;100379.59;;;12.45;100.00
15263;BME280;7733;51.554;13.590;2023-04-29T13:14:04;100382.41;;;12.36;100.00
15263;BME280;7733;51.554;13.590;2023-04-29T13:16:32;100384.09;;;12.38;100.00
15263;BME280;7733;51.554;13.590;2023-04-29T13:18:59;100393.06;;;12.30;100.00
15263;BME280;7733;51.554;13.590;2023-04-29T13:21:25;100393.03;;;12.31;100.00
15263;BME280;7733;51.554;13.590;2023-04-29T13:23:55;100394.84;;;12.29;100.00